Time;durP1;ratioP1;P1;durP2;ratioP2;P2;SDS_P1;SDS_P2;PMS_P1;PMS_P2;Temp;Humidity;BMP_temperature;BMP_pressure;BME280_temperature;BME280_humidity;BME280_pressure;Samples;Min_cycle;Max_cycle;Signal;HPM_P1;HPM_P2
2023/09/04 00:00:13;;;;;;;7.07;4.70;;;;;;;15.70;94.31;102263.38;4938003;29;20926;-68
2023/09/04 00:02:46;;;;;;;7.40;5.27;;;;;;;15.46;94.09;102268.28;4936817;29;20449;-66
2023/09/04 00:05:18;;;;;;;5.87;4.60;;;;;;;15.53;94.95;102265.63;4937248;29;20467;-66
2023/09/04 00:07:47;;;;;;;7.97;5.60;;;;;;;15.66;94.02;102252.03;4943959;29;20484;-67
2023/09/04 00:10:17;;;;;;;5.47;4.70;;;;;;;15.85;94.06;102264.94;4944117;29;20831;-67
2023/09/04 00:12:46;;;;;;;5.40;4.63;;;;;;;15.74;93.71;102265.50;4937458;29;20487;-67
2023/09/04 00:15:17;;;;;;;8.43;5.50;;;;;;;15.86;93.10;102257.59;4935941;29;20441;-67
2023/09/04 00:17:50;;;;;;;7.73;5.40;;;;;;;15.90;93.20;102254.25;4935996;29;20425;-67
2023/09/04 00:20:19;;;;;;;4.77;4.37;;;;;;;15.86;93.83;102263.91;4935851;29;20419;-67
2023/09/04 00:22:49;;;;;;;7.33;4.70;;;;;;;15.96;92.23;102275.28;4936095;29;20466;-67
2023/09/04 00:25:18;;;;;;;4.73;4.33;;;;;;;15.81;92.91;102273.72;4938563;29;20506;-69
2023/09/04 00:27:48;;;;;;;7.10;4.73;;;;;;;15.67;94.84;102275.56;4937925;29;20460;-66
2023/09/04 00:30:19;;;;;;;7.73;4.33;;;;;;;15.92;94.45;102284.09;4946008;28;20444;-67
2023/09/04 00:32:49;;;;;;;5.00;4.30;;;;;;;15.71;93.60;102276.84;4948337;28;20933;-67
2023/09/04 00:35:19;;;;;;;4.50;3.93;;;;;;;15.49;95.43;102283.41;4934430;29;20443;-67
2023/09/04 00:37:49;;;;;;;6.77;4.97;;;;;;;15.60;96.29;102274.66;4941657;29;20844;-67
2023/09/04 00:40:19;;;;;;;6.57;4.83;;;;;;;15.51;94.62;102270.44;4952010;28;20470;-67
2023/09/04 00:42:49;;;;;;;5.10;4.27;;;;;;;15.72;94.99;102273.06;4934703;29;20536;-67
2023/09/04 00:45:20;;;;;;;6.50;5.53;;;;;;;15.44;94.79;102275.00;4939903;29;20441;-67
2023/09/04 00:47:49;;;;;;;5.87;5.30;;;;;;;15.31;96.77;102277.63;4940771;28;20470;-67
2023/09/04 00:50:23;;;;;;;6.20;5.60;;;;;;;15.40;96.70;102273.69;4940818;29;20449;-67
2023/09/04 00:52:56;;;;;;;7.77;5.20;;;;;;;15.28;97.58;102270.69;4926896;29;20548;-67
2023/09/04 00:55:26;;;;;;;5.73;4.50;;;;;;;15.63;96.24;102264.22;4930163;29;20450;-67
2023/09/04 00:57:56;;;;;;;5.90;5.30;;;;;;;15.60;96.05;102259.16;4941737;29;20429;-68
2023/09/04 01:00:28;;;;;;;6.03;5.30;;;;;;;15.49;96.30;102264.31;4936737;29;20804;-66
2023/09/04 01:03:02;;;;;;;5.60;5.10;;;;;;;15.41;95.48;102267.19;4932522;29;20451;-68
2023/09/04 01:05:33;;;;;;;6.20;5.50;;;;;;;15.13;97.13;102273.53;4947282;28;21083;-66
2023/09/04 01:08:03;;;;;;;5.73;4.43;;;;;;;15.19;98.74;102267.28;4931930;29;20451;-66
2023/09/04 01:10:40;;;;;;;6.20;5.70;;;;;;;15.58;95.79;102263.13;4940539;29;20419;-66
2023/09/04 01:13:17;;;;;;;5.83;5.10;;;;;;;15.68;95.02;102260.88;4928353;29;20472;-66
2023/09/04 01:15:49;;;;;;;7.13;4.97;;;;;;;15.87;93.89;102271.03;4937349;29;20476;-67
2023/09/04 01:18:19;;;;;;;7.20;6.00;;;;;;;15.56;94.76;102271.50;4926527;29;20415;-67
2023/09/04 01:21:03;;;;;;;5.73;5.23;;;;;;;15.56;96.51;102267.94;4949279;29;20444;-66
2023/09/04 01:23:34;;;;;;;4.83;4.43;;;;;;;15.75;94.91;102267.19;4936349;29;20441;-66
2023/09/04 01:26:15;;;;;;;5.40;4.90;;;;;;;15.82;93.42;102264.50;4936670;29;20467;-67
2023/09/04 01:28:56;;;;;;;6.77;5.23;;;;;;;15.90;94.14;102269.78;4928176;29;20527;-67
2023/09/04 01:31:29;;;;;;;6.40;5.53;;;;;;;15.44;94.24;102261.34;4954219;28;20484;-66
2023/09/04 01:34:05;;;;;;;8.33;5.37;;;;;;;15.25;96.79;102264.81;4950238;28;20482;-67
2023/09/04 01:36:38;;;;;;;6.17;5.57;;;;;;;15.33;97.01;102268.22;4943148;29;20432;-66
2023/09/04 01:39:09;;;;;;;6.63;5.50;;;;;;;15.29;97.49;102266.06;4938746;29;20428;-66
2023/09/04 01:41:39;;;;;;;5.23;4.73;;;;;;;15.46;97.47;102257.38;4934004;29;20497;-66
2023/09/04 01:44:08;;;;;;;7.00;4.77;;;;;;;15.75;95.71;102260.88;4950556;28;20910;-66
2023/09/04 01:46:38;;;;;;;5.63;5.00;;;;;;;15.72;94.09;102262.16;4932410;29;20484;-66
2023/09/04 01:49:07;;;;;;;6.13;4.80;;;;;;;15.79;94.04;102262.16;4936283;29;20487;-67
2023/09/04 01:51:38;;;;;;;6.27;5.70;;;;;;;15.65;94.84;102262.09;4929460;29;20781;-67
2023/09/04 01:54:08;;;;;;;5.63;4.97;;;;;;;15.59;94.60;102271.09;4955348;28;20575;-67
2023/09/04 01:56:37;;;;;;;6.00;5.40;;;;;;;15.57;95.21;102275.09;4936240;29;20789;-67
2023/09/04 01:59:07;;;;;;;7.17;6.47;;;;;;;15.33;96.58;102273.66;4941321;29;20999;-67
2023/09/04 02:01:36;;;;;;;6.50;5.50;;;;;;;15.71;94.94;102265.91;4937563;29;20476;-67
2023/09/04 02:04:06;;;;;;;7.90;5.53;;;;;;;15.66;95.13;102262.97;4943583;28;20419;-67
2023/09/04 02:06:37;;;;;;;5.40;4.90;;;;;;;15.95;93.89;102259.94;4971932;28;20534;-67
2023/09/04 02:09:06;;;;;;;9.40;5.30;;;;;;;15.69;93.75;102262.53;4947002;28;20514;-69
2023/09/04 02:11:36;;;;;;;6.10;5.60;;;;;;;15.50;95.22;102269.56;4940489;29;20516;-65
2023/09/04 02:14:05;;;;;;;6.90;6.00;;;;;;;15.42;95.69;102269.72;4944812;29;20776;-67
2023/09/04 02:16:35;;;;;;;7.27;6.57;;;;;;;15.29;96.80;102272.38;4943073;28;20504;-67
2023/09/04 02:19:04;;;;;;;5.80;5.30;;;;;;;15.36;97.46;102264.22;4939945;29;20439;-67
2023/09/04 02:21:33;;;;;;;6.53;5.93;;;;;;;15.39;96.71;102261.09;4948798;28;20510;-67
2023/09/04 02:24:05;;;;;;;5.40;4.80;;;;;;;15.23;98.17;102271.28;4944726;29;20441;-66
2023/09/04 02:26:34;;;;;;;6.27;5.57;;;;;;;15.37;96.91;102274.09;4947967;29;20444;-66
2023/09/04 02:29:04;;;;;;;8.10;5.43;;;;;;;15.70;95.39;102272.41;4936346;29;20474;-67
2023/09/04 02:31:33;;;;;;;6.07;5.57;;;;;;;15.31;97.21;102269.44;4959187;28;20570;-66
2023/09/04 02:34:20;;;;;;;5.83;5.33;;;;;;;15.59;95.33;102275.72;4942351;29;20422;-66
2023/09/04 02:36:49;;;;;;;6.83;5.53;;;;;;;15.53;94.85;102260.16;4942550;28;20525;-66
2023/09/04 02:39:20;;;;;;;6.40;5.80;;;;;;;15.64;94.50;102259.56;4946832;28;20432;-68
2023/09/04 02:41:50;;;;;;;5.10;4.60;;;;;;;15.52;95.24;102267.50;4963827;28;20478;-67
2023/09/04 02:44:19;;;;;;;7.73;5.90;;;;;;;15.52;95.32;102258.47;4935019;29;20452;-67
2023/09/04 02:46:48;;;;;;;7.83;5.90;;;;;;;15.57;95.54;102265.03;4947470;29;20411;-67
2023/09/04 02:49:18;;;;;;;5.97;5.37;;;;;;;15.42;95.85;102266.16;4945506;29;21004;-67
2023/09/04 02:51:47;;;;;;;6.43;5.83;;;;;;;15.26;96.25;102261.84;4943386;28;20427;-67
2023/09/04 02:54:16;;;;;;;5.73;5.23;;;;;;;15.40;96.72;102266.34;4942620;28;20399;-67
2023/09/04 02:56:47;;;;;;;6.83;5.13;;;;;;;15.48;96.26;102273.53;4940726;29;20435;-68
2023/09/04 02:59:16;;;;;;;5.73;5.23;;;;;;;15.50;95.63;102271.44;4941489;29;20864;-68
2023/09/04 03:01:46;;;;;;;5.17;4.67;;;;;;;15.34;96.47;102269.03;4930359;29;20808;-68
2023/09/04 03:04:15;;;;;;;6.00;5.53;;;;;;;15.48;96.13;102276.28;4938087;29;20456;-67
2023/09/04 03:06:45;;;;;;;5.30;4.90;;;;;;;15.30;96.06;102278.69;4939507;29;20448;-67
2023/09/04 03:09:15;;;;;;;5.97;5.17;;;;;;;15.51;96.25;102275.88;4935748;29;20939;-68
2023/09/04 03:11:46;;;;;;;6.20;5.33;;;;;;;15.12;96.38;102280.00;4943100;29;20938;-68
2023/09/04 03:14:16;;;;;;;5.90;5.30;;;;;;;15.45;96.51;102276.66;4936583;29;20517;-68
2023/09/04 03:16:46;;;;;;;9.57;5.97;;;;;;;15.34;96.07;102280.81;4951307;29;20533;-68
2023/09/04 03:19:15;;;;;;;6.03;5.43;;;;;;;15.17;97.33;102274.81;4932624;29;20960;-68
2023/09/04 03:21:44;;;;;;;7.93;6.53;;;;;;;14.86;99.16;102287.16;4945533;29;20467;-68
2023/09/04 03:24:15;;;;;;;11.33;7.00;;;;;;;14.65;99.49;102288.84;4946514;29;20455;-67
2023/09/04 03:26:45;;;;;;;5.97;5.37;;;;;;;14.90;100.00;102288.44;4932590;29;20477;-68
2023/09/04 03:29:16;;;;;;;6.90;6.27;;;;;;;14.84;99.65;102290.06;4954318;28;20452;-68
2023/09/04 03:31:47;;;;;;;8.23;7.27;;;;;;;14.77;100.00;102283.69;4935093;29;20483;-68
2023/09/04 03:34:18;;;;;;;14.63;6.90;;;;;;;14.84;100.00;102295.50;4921645;29;20408;-68
2023/09/04 03:36:48;;;;;;;6.33;4.93;;;;;;;14.76;100.00;102295.66;4945084;29;20474;-68
2023/09/04 03:39:17;;;;;;;8.20;6.90;;;;;;;14.72;100.00;102297.06;4935861;29;20452;-68
2023/09/04 03:41:49;;;;;;;7.17;5.97;;;;;;;14.94;100.00;102298.75;4938129;29;20994;-69
2023/09/04 03:44:18;;;;;;;6.77;5.97;;;;;;;14.93;100.00;102297.06;4952824;28;20599;-68
2023/09/04 03:46:47;;;;;;;6.50;5.90;;;;;;;14.96;100.00;102295.84;4935866;29;20437;-68
2023/09/04 03:49:17;;;;;;;8.57;7.30;;;;;;;14.86;99.90;102298.91;4933478;29;20437;-69
2023/09/04 03:51:46;;;;;;;7.90;6.30;;;;;;;14.74;100.00;102292.28;4936436;29;20479;-68
2023/09/04 03:54:15;;;;;;;7.20;6.60;;;;;;;14.51;100.00;102299.81;4944119;29;20423;-68
2023/09/04 03:56:45;;;;;;;6.80;6.30;;;;;;;14.59;100.00;102297.78;4940904;29;20479;-68
2023/09/04 03:59:16;;;;;;;7.47;6.63;;;;;;;14.68;100.00;102298.50;4939059;29;20512;-67
2023/09/04 04:01:45;;;;;;;7.50;6.80;;;;;;;14.44;100.00;102301.59;4950477;29;20953;-68
2023/09/04 04:04:15;;;;;;;7.30;6.57;;;;;;;14.77;100.00;102302.78;4938493;28;20543;-68
2023/09/04 04:06:44;;;;;;;8.00;7.23;;;;;;;14.84;100.00;102306.41;4942443;29;20428;-68
2023/09/04 04:09:15;;;;;;;7.80;5.93;;;;;;;14.99;100.00;102307.19;4938671;29;20460;-68
2023/09/04 04:11:45;;;;;;;9.17;7.70;;;;;;;15.00;99.68;102313.47;4937502;29;20499;-68
2023/09/04 04:14:16;;;;;;;6.77;6.13;;;;;;;14.79;100.00;102317.06;4935603;29;20462;-67
2023/09/04 04:16:45;;;;;;;7.90;6.63;;;;;;;14.80;100.00;102321.47;4928624;29;20564;-67
2023/09/04 04:19:15;;;;;;;7.73;6.93;;;;;;;15.10;100.00;102317.53;4962354;28;20475;-68
2023/09/04 04:21:45;;;;;;;6.40;5.80;;;;;;;15.29;98.72;102323.34;4960435;28;20475;-69
2023/09/04 04:24:15;;;;;;;7.30;6.60;;;;;;;15.57;97.03;102324.22;4934055;29;20457;-68
2023/09/04 04:26:44;;;;;;;8.20;7.50;;;;;;;15.33;97.17;102321.91;4928252;29;20444;-68
2023/09/04 04:29:15;;;;;;;8.13;5.90;;;;;;;15.65;95.71;102327.59;4953797;28;20672;-68
2023/09/04 04:31:45;;;;;;;7.77;6.83;;;;;;;15.50;95.48;102328.72;4948622;29;20464;-68
2023/09/04 04:34:15;;;;;;;7.27;5.93;;;;;;;15.38;96.82;102328.47;4923782;29;20980;-68
2023/09/04 04:36:44;;;;;;;6.03;5.53;;;;;;;15.57;96.06;102337.84;4942093;29;20438;-68
2023/09/04 04:39:14;;;;;;;7.43;6.80;;;;;;;15.49;95.78;102336.06;4948443;28;20436;-68
2023/09/04 04:41:43;;;;;;;8.70;7.00;;;;;;;15.37;96.72;102337.69;4959811;28;20479;-68
2023/09/04 04:44:12;;;;;;;8.60;6.40;;;;;;;15.48;96.26;102336.28;4937837;29;20414;-66
2023/09/04 04:46:43;;;;;;;7.27;6.67;;;;;;;15.33;97.07;102333.66;4940793;29;20436;-67
2023/09/04 04:49:13;;;;;;;8.03;6.53;;;;;;;15.29;97.38;102337.00;4929920;29;20494;-68
2023/09/04 04:51:42;;;;;;;10.10;6.97;;;;;;;15.13;98.72;102332.66;4941211;29;20526;-69
2023/09/04 04:54:12;;;;;;;7.70;6.40;;;;;;;15.34;98.61;102334.50;4943678;28;20419;-67
2023/09/04 04:56:41;;;;;;;9.10;6.47;;;;;;;15.44;97.67;102329.56;4945854;29;20450;-67
2023/09/04 04:59:10;;;;;;;6.90;6.20;;;;;;;15.60;96.35;102338.28;4941242;29;20415;-68
2023/09/04 05:01:40;;;;;;;7.47;6.67;;;;;;;15.67;95.28;102338.34;4946024;28;20471;-69
2023/09/04 05:04:11;;;;;;;9.50;7.70;;;;;;;15.69;96.01;102343.56;4936778;29;21002;-69
2023/09/04 05:06:40;;;;;;;13.37;6.87;;;;;;;15.50;96.52;102350.56;4946456;28;20952;-69
2023/09/04 05:09:10;;;;;;;8.70;7.13;;;;;;;15.95;95.34;102351.91;4948913;28;20442;-68
2023/09/04 05:11:40;;;;;;;14.50;8.00;;;;;;;15.99;94.53;102351.31;4931292;29;21000;-67
2023/09/04 05:14:09;;;;;;;7.90;7.20;;;;;;;15.94;93.94;102356.53;4952854;28;20483;-68
2023/09/04 05:16:39;;;;;;;9.30;7.10;;;;;;;15.98;93.74;102348.78;4957221;28;20469;-68
2023/09/04 05:19:10;;;;;;;7.87;7.17;;;;;;;16.01;93.86;102354.69;4929318;29;20471;-68
2023/09/04 05:21:40;;;;;;;14.43;7.83;;;;;;;16.06;93.96;102349.47;4953304;28;20920;-68
2023/09/04 05:24:24;;;;;;;8.93;7.27;;;;;;;16.09;92.72;102353.66;4948521;28;20936;-69
2023/09/04 05:26:54;;;;;;;8.03;7.23;;;;;;;16.07;93.06;102356.59;4941215;29;20483;-69
2023/09/04 05:29:23;;;;;;;10.17;8.33;;;;;;;16.38;92.15;102355.25;4950814;28;20831;-67
2023/09/04 05:31:53;;;;;;;11.17;8.20;;;;;;;16.46;91.12;102357.78;4951863;28;20526;-68
2023/09/04 05:34:24;;;;;;;10.10;7.87;;;;;;;16.32;90.99;102350.59;4930116;29;20437;-68
2023/09/04 05:36:54;;;;;;;10.20;8.43;;;;;;;16.63;90.43;102358.28;4953428;28;20476;-68
2023/09/04 05:39:23;;;;;;;9.47;8.57;;;;;;;16.91;87.21;102348.88;4935257;29;20432;-68
2023/09/04 05:41:53;;;;;;;8.33;6.87;;;;;;;16.54;89.03;102360.34;4932277;29;20458;-69
2023/09/04 05:44:22;;;;;;;9.10;8.20;;;;;;;16.83;89.30;102354.56;4957927;28;20430;-68
2023/09/04 05:46:51;;;;;;;8.70;7.90;;;;;;;16.90;87.06;102352.66;4929803;29;20429;-68
2023/09/04 05:49:21;;;;;;;11.47;10.47;;;;;;;16.72;87.64;102363.38;4953175;28;20806;-68
2023/09/04 05:51:52;;;;;;;7.40;6.77;;;;;;;16.98;87.65;102359.00;4951277;28;20484;-68
2023/09/04 05:54:22;;;;;;;8.93;7.80;;;;;;;17.21;86.99;102356.69;4925693;29;20437;-68
2023/09/04 05:56:52;;;;;;;12.90;11.30;;;;;;;17.17;86.20;102353.53;4935862;29;20855;-67
2023/09/04 05:59:21;;;;;;;13.10;9.37;;;;;;;17.23;86.80;102354.59;4942910;28;20453;-67
2023/09/04 06:01:50;;;;;;;12.97;8.80;;;;;;;17.13;86.47;102365.09;4930484;29;20470;-68
2023/09/04 06:04:20;;;;;;;9.67;8.17;;;;;;;17.04;87.05;102367.19;4934184;29;20522;-68
2023/09/04 06:06:54;;;;;;;11.70;9.60;;;;;;;17.27;86.58;102364.03;4940858;29;20485;-69
2023/09/04 06:09:24;;;;;;;16.10;14.57;;;;;;;17.55;84.70;102361.91;4948616;28;20531;-69
2023/09/04 06:11:53;;;;;;;8.43;7.70;;;;;;;17.72;83.62;102357.69;4942246;29;20466;-68
2023/09/04 06:14:23;;;;;;;10.27;8.30;;;;;;;17.75;83.42;102360.00;4939766;29;20448;-68
2023/09/04 06:16:52;;;;;;;9.10;7.70;;;;;;;18.04;81.13;102358.66;4934100;29;20446;-68
2023/09/04 06:19:22;;;;;;;7.50;6.80;;;;;;;17.98;82.12;102361.41;4931636;29;20473;-68
2023/09/04 06:21:51;;;;;;;17.30;8.87;;;;;;;17.91;82.43;102355.13;4929794;29;20465;-68
2023/09/04 06:24:22;;;;;;;10.03;7.70;;;;;;;18.03;81.28;102356.13;4933648;29;20866;-67
2023/09/04 06:26:51;;;;;;;8.93;8.13;;;;;;;17.96;82.34;102356.13;4941594;29;20407;-68
2023/09/04 06:29:21;;;;;;;9.47;7.50;;;;;;;18.09;82.25;102360.75;4950674;28;20420;-68
2023/09/04 06:31:51;;;;;;;8.87;7.93;;;;;;;18.35;80.54;102352.41;4953461;28;20511;-68
2023/09/04 06:34:20;;;;;;;11.67;7.47;;;;;;;18.73;78.45;102354.34;4935862;29;20427;-68
2023/09/04 06:36:50;;;;;;;10.63;8.97;;;;;;;18.99;77.04;102345.91;4934831;29;20503;-68
2023/09/04 06:39:21;;;;;;;9.53;8.23;;;;;;;18.90;77.14;102355.47;4928230;29;20849;-68
2023/09/04 06:41:51;;;;;;;10.17;9.10;;;;;;;18.66;78.30;102352.47;4948095;28;20459;-67
2023/09/04 06:44:22;;;;;;;11.50;10.40;;;;;;;18.65;78.00;102356.28;4950125;28;20439;-69
2023/09/04 06:47:06;;;;;;;10.37;9.30;;;;;;;18.53;79.07;102359.91;4940820;29;20827;-69
2023/09/04 06:49:36;;;;;;;12.30;10.10;;;;;;;18.56;79.74;102360.34;4950370;28;20434;-69
2023/09/04 06:52:06;;;;;;;10.70;8.87;;;;;;;18.55;79.76;102350.44;4939449;29;21248;-68
2023/09/04 06:54:37;;;;;;;9.87;8.70;;;;;;;18.59;79.59;102350.81;4946058;28;20420;-68
2023/09/04 06:57:07;;;;;;;10.57;9.10;;;;;;;18.78;78.00;102343.56;4937496;29;20994;-68
2023/09/04 06:59:36;;;;;;;10.60;9.60;;;;;;;18.88;78.29;102343.91;4940198;29;20798;-67
2023/09/04 07:02:06;;;;;;;8.80;7.97;;;;;;;19.04;78.01;102346.09;4943229;29;20539;-69
2023/09/04 07:04:35;;;;;;;10.67;9.60;;;;;;;19.08;77.24;102350.06;4930109;29;20411;-67
2023/09/04 07:07:05;;;;;;;9.43;8.53;;;;;;;19.06;77.36;102352.19;4935384;29;20407;-68
2023/09/04 07:09:36;;;;;;;11.47;10.27;;;;;;;19.23;76.61;102345.06;4952889;28;20451;-68
2023/09/04 07:12:06;;;;;;;11.03;9.17;;;;;;;19.53;75.83;102346.09;4936773;29;20445;-68
2023/09/04 07:14:37;;;;;;;9.13;8.27;;;;;;;19.42;75.87;102337.72;4931660;29;20419;-68
2023/09/04 07:17:07;;;;;;;9.67;7.40;;;;;;;19.63;75.44;102348.31;4945361;28;20436;-69
2023/09/04 07:19:39;;;;;;;9.07;8.27;;;;;;;19.91;73.57;102347.78;4938286;29;20456;-68
2023/09/04 07:22:09;;;;;;;6.80;6.20;;;;;;;19.85;73.56;102346.78;4933577;29;20458;-68
2023/09/04 07:24:40;;;;;;;7.13;6.50;;;;;;;20.11;73.31;102351.16;4949290;29;20443;-68
2023/09/04 07:27:10;;;;;;;12.87;8.17;;;;;;;20.07;72.23;102355.44;4947826;29;20505;-68
2023/09/04 07:29:39;;;;;;;8.07;6.87;;;;;;;20.18;73.08;102351.91;4926200;29;20949;-68
2023/09/04 07:32:09;;;;;;;8.60;7.07;;;;;;;20.28;72.17;102354.94;4949279;28;20482;-69
2023/09/04 07:34:38;;;;;;;6.77;6.07;;;;;;;20.21;71.40;102354.19;4932341;29;20415;-69
2023/09/04 07:37:08;;;;;;;7.00;6.20;;;;;;;20.14;71.76;102355.38;4933385;29;20787;-69
2023/09/04 07:39:37;;;;;;;7.80;5.47;;;;;;;20.28;72.10;102351.38;4929665;29;20827;-67
2023/09/04 07:42:08;;;;;;;6.40;5.80;;;;;;;20.42;71.95;102358.41;4935220;29;21035;-68
2023/09/04 07:44:38;;;;;;;5.60;4.57;;;;;;;20.58;71.01;102354.97;4951732;28;20828;-68
2023/09/04 07:47:07;;;;;;;14.23;9.93;;;;;;;20.53;70.58;102354.84;4943587;29;20452;-68
2023/09/04 07:49:37;;;;;;;7.63;5.73;;;;;;;20.41;70.88;102353.97;4940425;29;20455;-68
2023/09/04 07:52:06;;;;;;;6.30;5.20;;;;;;;20.49;70.02;102352.78;4956564;28;21016;-68
2023/09/04 07:54:36;;;;;;;9.83;6.43;;;;;;;20.52;69.56;102360.59;4934596;29;20478;-67
2023/09/04 07:57:07;;;;;;;9.70;6.50;;;;;;;20.50;69.08;102360.81;4949109;29;20455;-68
2023/09/04 07:59:37;;;;;;;4.97;4.57;;;;;;;20.47;69.17;102361.28;4927074;29;20522;-67
2023/09/04 08:02:07;;;;;;;10.07;6.40;;;;;;;20.46;69.58;102369.78;4933484;29;20504;-69
2023/09/04 08:04:36;;;;;;;6.13;5.23;;;;;;;20.47;69.00;102363.22;4937052;29;20423;-68
2023/09/04 08:07:06;;;;;;;6.60;5.87;;;;;;;20.54;69.71;102362.03;4935056;28;20515;-68
2023/09/04 08:09:35;;;;;;;6.50;5.50;;;;;;;20.57;70.74;102363.50;4931357;29;20535;-68
2023/09/04 08:12:05;;;;;;;6.73;5.63;;;;;;;20.63;68.17;102359.78;4935717;29;20886;-68
2023/09/04 08:14:37;;;;;;;8.83;6.17;;;;;;;20.66;67.23;102359.34;4943848;29;20423;-68
2023/09/04 08:17:06;;;;;;;9.33;6.60;;;;;;;20.69;66.91;102367.09;4934087;29;20436;-68
2023/09/04 08:19:37;;;;;;;9.80;6.83;;;;;;;20.71;68.26;102356.72;4931413;29;20408;-68
2023/09/04 08:22:07;;;;;;;18.27;16.30;;;;;;;20.89;67.85;102358.56;4938650;29;20441;-68
2023/09/04 08:24:36;;;;;;;12.07;5.93;;;;;;;21.09;66.88;102356.34;4942090;29;20928;-68
2023/09/04 08:27:06;;;;;;;11.80;5.63;;;;;;;21.05;65.71;102355.97;4940270;29;20419;-70
2023/09/04 08:29:36;;;;;;;7.70;6.73;;;;;;;21.12;64.92;102353.94;4936498;28;20453;-69
2023/09/04 08:32:06;;;;;;;7.43;6.53;;;;;;;21.09;63.54;102348.91;4933494;29;20438;-68
2023/09/04 08:34:36;;;;;;;6.57;5.50;;;;;;;21.18;64.05;102350.28;4943369;28;20842;-67
2023/09/04 08:37:05;;;;;;;6.83;5.60;;;;;;;21.31;63.99;102340.09;4935489;29;21004;-69
2023/09/04 08:39:35;;;;;;;8.67;6.70;;;;;;;21.45;63.49;102336.88;4956165;28;20435;-69
2023/09/04 08:42:07;;;;;;;8.63;7.03;;;;;;;21.37;63.69;102344.66;4930646;29;20472;-67
2023/09/04 08:44:39;;;;;;;13.53;5.93;;;;;;;21.58;63.05;102344.06;4951137;28;20555;-67
2023/09/04 08:47:11;;;;;;;6.67;5.70;;;;;;;21.37;61.74;102345.50;4929416;28;20796;-67
2023/09/04 08:49:40;;;;;;;15.63;8.40;;;;;;;21.37;62.59;102344.66;4936034;29;20424;-68
2023/09/04 08:52:10;;;;;;;10.97;6.93;;;;;;;21.32;63.41;102336.28;4958847;28;20464;-71
2023/09/04 08:54:40;;;;;;;11.10;6.40;;;;;;;21.62;62.81;102342.50;4948041;28;20423;-69
2023/09/04 08:57:11;;;;;;;9.53;5.70;;;;;;;21.68;62.58;102347.06;4941801;29;20452;-69
2023/09/04 08:59:42;;;;;;;5.53;4.70;;;;;;;21.49;62.06;102348.25;4940580;29;20468;-68
2023/09/04 09:02:16;;;;;;;8.07;6.00;;;;;;;21.68;61.64;102342.38;4936406;29;20507;-69
2023/09/04 09:04:46;;;;;;;7.60;6.00;;;;;;;21.75;61.85;102353.25;4932988;29;20418;-68
2023/09/04 09:07:17;;;;;;;18.13;12.53;;;;;;;21.99;61.27;102343.91;4954084;28;20427;-68
2023/09/04 09:09:51;;;;;;;8.17;5.30;;;;;;;22.23;61.07;102347.44;4929934;29;20432;-69
2023/09/04 09:12:20;;;;;;;7.70;5.77;;;;;;;22.30;59.45;102358.34;4937620;29;20437;-69
2023/09/04 09:14:50;;;;;;;5.03;4.53;;;;;;;22.01;61.08;102358.31;4945254;28;20420;-69
2023/09/04 09:17:19;;;;;;;7.07;6.30;;;;;;;21.85;59.77;102359.00;4927742;29;20441;-69
2023/09/04 09:19:49;;;;;;;6.87;4.73;;;;;;;22.00;60.04;102356.63;4934323;29;20451;-69
2023/09/04 09:22:19;;;;;;;6.73;4.47;;;;;;;22.27;58.86;102354.13;4951509;28;20452;-69
2023/09/04 09:24:53;;;;;;;5.37;4.87;;;;;;;22.18;58.50;102349.25;4934847;29;20419;-68
2023/09/04 09:27:23;;;;;;;6.23;5.13;;;;;;;22.19;58.98;102346.25;4940313;29;20488;-68
2023/09/04 09:29:57;;;;;;;5.40;4.90;;;;;;;22.49;58.33;102346.88;4934551;29;20435;-68
2023/09/04 09:32:29;;;;;;;6.37;5.63;;;;;;;22.35;57.99;102355.69;4939221;29;20463;-68
2023/09/04 09:35:01;;;;;;;13.63;5.00;;;;;;;22.68;57.72;102341.97;4958146;28;20434;-68
2023/09/04 09:37:32;;;;;;;8.60;4.90;;;;;;;22.43;58.58;102356.13;4931976;29;20451;-68
2023/09/04 09:40:02;;;;;;;5.13;4.73;;;;;;;22.65;58.36;102339.72;4942869;28;20466;-67
2023/09/04 09:42:31;;;;;;;13.37;12.00;;;;;;;22.98;57.89;102340.88;4950434;28;20482;-69
2023/09/04 09:45:01;;;;;;;6.90;4.50;;;;;;;23.05;55.94;102345.13;4941117;29;20813;-69
2023/09/04 09:47:30;;;;;;;5.77;5.17;;;;;;;22.75;56.81;102342.66;4933604;29;20945;-68
2023/09/04 09:50:00;;;;;;;5.40;4.60;;;;;;;22.47;56.92;102339.91;4949164;28;20540;-68
2023/09/04 09:52:29;;;;;;;9.37;5.80;;;;;;;22.75;57.20;102339.91;4930064;29;20940;-68
2023/09/04 09:54:59;;;;;;;5.17;4.60;;;;;;;22.81;56.70;102344.44;4934974;29;20428;-69
2023/09/04 09:57:30;;;;;;;8.10;5.47;;;;;;;22.92;57.70;102342.72;4936812;29;20445;-69
2023/09/04 10:00:02;;;;;;;6.00;4.60;;;;;;;23.11;55.83;102335.84;4939369;29;20465;-69
2023/09/04 10:02:32;;;;;;;5.60;4.50;;;;;;;22.94;56.33;102340.56;4935413;29;20427;-69
2023/09/04 10:05:02;;;;;;;7.63;4.90;;;;;;;22.89;56.24;102338.53;4930982;29;20989;-68
2023/09/04 10:07:34;;;;;;;4.10;3.70;;;;;;;22.80;56.24;102328.97;4933086;29;20422;-68
2023/09/04 10:10:06;;;;;;;6.00;4.77;;;;;;;22.87;56.33;102329.66;4939300;29;20425;-69
2023/09/04 10:12:37;;;;;;;5.67;5.00;;;;;;;23.19;56.55;102335.44;4927256;29;20475;-68
2023/09/04 10:15:11;;;;;;;7.67;4.97;;;;;;;23.28;56.28;102333.94;4925155;29;20540;-67
2023/09/04 10:17:47;;;;;;;4.70;4.30;;;;;;;23.35;54.96;102339.28;4934011;29;20427;-68
2023/09/04 10:20:16;;;;;;;5.53;5.03;;;;;;;23.40;54.62;102336.59;4929625;29;20555;-69
2023/09/04 10:22:48;;;;;;;4.47;4.07;;;;;;;23.44;54.35;102337.75;4926041;29;20902;-69
2023/09/04 10:25:28;;;;;;;4.80;3.63;;;;;;;23.22;54.71;102334.94;4941139;29;20926;-69
2023/09/04 10:28:04;;;;;;;5.50;4.50;;;;;;;23.07;55.27;102337.44;4941330;29;20441;-68
2023/09/04 10:30:45;;;;;;;6.07;4.80;;;;;;;23.34;54.88;102340.34;4935179;29;20430;-69
2023/09/04 10:33:15;;;;;;;5.00;4.60;;;;;;;23.51;54.88;102330.16;4953331;28;20454;-67
2023/09/04 10:35:45;;;;;;;5.07;3.90;;;;;;;23.87;54.00;102327.91;4956938;28;20583;-68
2023/09/04 10:38:14;;;;;;;4.63;3.70;;;;;;;23.82;52.88;102323.13;4932871;29;20512;-68
2023/09/04 10:40:47;;;;;;;6.73;3.60;;;;;;;23.53;53.27;102329.94;4938990;29;20549;-67
2023/09/04 10:43:17;;;;;;;4.20;3.80;;;;;;;23.42;53.59;102326.13;4943961;28;20551;-68
2023/09/04 10:46:05;;;;;;;5.30;4.80;;;;;;;23.61;53.56;102319.25;4952471;28;20430;-68
2023/09/04 10:48:42;;;;;;;4.53;3.83;;;;;;;23.74;53.06;102307.84;4929893;29;20955;-67
2023/09/04 10:51:31;;;;;;;11.63;3.93;;;;;;;23.89;52.54;102303.59;4935314;29;20812;-66
2023/09/04 10:54:02;;;;;;;6.43;4.70;;;;;;;24.00;52.27;102305.41;4937459;29;20416;-69
2023/09/04 10:56:53;;;;;;;4.50;3.83;;;;;;;23.83;51.95;102311.81;4948924;28;20460;-67
2023/09/04 10:59:23;;;;;;;4.20;3.83;;;;;;;23.81;50.85;102314.03;4938847;29;20822;-67
2023/09/04 11:01:55;;;;;;;6.03;4.70;;;;;;;23.89;51.03;102306.34;4930872;29;20518;-67
2023/09/04 11:04:32;;;;;;;7.50;4.80;;;;;;;23.87;49.29;102311.31;4940477;29;20483;-67
2023/09/04 11:07:26;;;;;;;5.73;3.73;;;;;;;23.85;51.40;102306.03;4938974;29;20489;-68
2023/09/04 11:10:32;;;;;;;5.27;3.60;;;;;;;24.00;51.39;102305.41;4924052;29;20468;-69
2023/09/04 11:13:02;;;;;;;5.47;4.10;;;;;;;24.25;48.78;102292.72;4931172;29;20482;-68
2023/09/04 11:15:33;;;;;;;6.37;3.90;;;;;;;24.32;48.80;102298.06;4936303;29;21035;-67
2023/09/04 11:18:13;;;;;;;3.30;3.00;;;;;;;24.33;49.29;102299.72;4961102;28;20817;-68
2023/09/04 11:20:46;;;;;;;4.30;3.60;;;;;;;24.44;49.32;102292.38;4935678;29;20503;-67
2023/09/04 11:23:19;;;;;;;4.40;4.03;;;;;;;24.47;49.37;102294.63;4936333;29;20471;-66
2023/09/04 11:25:48;;;;;;;6.23;4.80;;;;;;;24.53;49.28;102288.88;4939509;29;20413;-67
2023/09/04 11:28:22;;;;;;;6.17;4.60;;;;;;;24.30;49.89;102288.34;4954703;28;20499;-68
2023/09/04 11:30:53;;;;;;;4.87;4.17;;;;;;;24.21;50.19;102297.09;4931638;29;20634;-68
2023/09/04 11:33:24;;;;;;;5.07;3.47;;;;;;;24.22;49.86;102295.16;4936016;28;20463;-68
2023/09/04 11:36:00;;;;;;;6.60;4.67;;;;;;;24.23;49.92;102288.53;4932129;29;20445;-68
2023/09/04 11:38:31;;;;;;;7.13;4.80;;;;;;;24.50;50.22;102288.53;4935998;29;20438;-67
2023/09/04 11:41:00;;;;;;;5.97;4.40;;;;;;;24.73;49.93;102298.47;4949981;28;20446;-68